Time;durP1;ratioP1;P1;durP2;ratioP2;P2;SDS_P1;SDS_P2;PMS_P1;PMS_P2;Temp;Humidity;BMP_temperature;BMP_pressure;BME280_temperature;BME280_humidity;BME280_pressure;Samples;Min_cycle;Max_cycle;Signal;HPM_P1;HPM_P2
2023/02/16 00:00:20;;;;;;;19.00;12.23;;;3.60;99.90;;;;;;4956065;28;20275;-88
2023/02/16 00:02:46;;;;;;;21.53;13.63;;;3.50;99.90;;;;;;4957273;28;20248;-88
2023/02/16 00:05:31;;;;;;;21.27;13.33;;;3.50;99.90;;;;;;4955370;28;20620;-85
2023/02/16 00:07:57;;;;;;;21.80;12.80;;;3.50;99.90;;;;;;4956382;28;20177;-85
2023/02/16 00:10:25;;;;;;;22.37;13.57;;;3.50;99.90;;;;;;4955736;28;20245;-84
2023/02/16 00:15:36;;;;;;;21.37;13.53;;;3.50;99.90;;;;;;4957091;29;20256;-87
2023/02/16 00:18:04;;;;;;;20.07;13.17;;;3.40;99.90;;;;;;4955808;29;20209;-85
2023/02/16 00:20:30;;;;;;;22.87;13.97;;;3.50;99.90;;;;;;4955278;28;20209;-85
2023/02/16 00:22:57;;;;;;;22.10;14.23;;;3.50;99.90;;;;;;4956841;28;20181;-86
2023/02/16 00:25:23;;;;;;;24.87;14.43;;;3.40;99.90;;;;;;4955845;28;20275;-85
2023/02/16 00:27:49;;;;;;;22.70;13.63;;;3.40;99.90;;;;;;4955793;28;20196;-87
2023/02/16 00:30:20;;;;;;;24.40;13.93;;;3.40;99.90;;;;;;4955324;28;20652;-86
2023/02/16 00:32:46;;;;;;;24.10;14.47;;;3.40;99.90;;;;;;4955612;28;20518;-85
2023/02/16 00:35:17;;;;;;;23.13;13.70;;;3.40;99.90;;;;;;4955244;28;20271;-85
2023/02/16 00:37:43;;;;;;;23.10;13.30;;;3.40;99.90;;;;;;4955972;28;20189;-84
2023/02/16 00:40:10;;;;;;;23.27;13.57;;;3.40;99.90;;;;;;4955262;28;20181;-84
2023/02/16 00:42:36;;;;;;;23.47;15.30;;;3.40;99.90;;;;;;4955377;28;20272;-88
2023/02/16 00:45:02;;;;;;;20.27;13.47;;;3.30;99.90;;;;;;4955298;28;20177;-81
2023/02/16 00:47:40;;;;;;;21.17;13.60;;;3.30;99.90;;;;;;4955235;28;20178;-81
2023/02/16 00:50:28;;;;;;;21.83;13.17;;;3.30;99.90;;;;;;4955014;28;20209;-85
2023/02/16 00:52:57;;;;;;;19.03;13.20;;;3.20;99.90;;;;;;4955527;28;20549;-83
2023/02/16 00:55:27;;;;;;;23.73;14.20;;;3.20;99.90;;;;;;4955441;28;20185;-82
2023/02/16 00:57:55;;;;;;;23.50;14.07;;;3.20;99.90;;;;;;4956050;29;20177;-81
2023/02/16 01:00:28;;;;;;;25.73;14.80;;;3.10;99.90;;;;;;4955583;29;20184;-84
2023/02/16 01:02:57;;;;;;;27.77;14.63;;;3.10;99.90;;;;;;4955266;28;20199;-82
2023/02/16 01:05:23;;;;;;;24.67;13.63;;;3.10;99.90;;;;;;4954948;28;20608;-84
2023/02/16 01:13:22;;;;;;;23.77;14.00;;;3.10;99.90;;;;;;4956243;29;20169;-84
2023/02/16 01:15:48;;;;;;;27.00;15.37;;;3.00;99.90;;;;;;4954854;28;20185;-83
2023/02/16 01:18:16;;;;;;;23.17;13.47;;;3.00;99.90;;;;;;4955102;28;20595;-83
2023/02/16 01:20:42;;;;;;;24.37;13.70;;;3.10;99.90;;;;;;4954442;28;20601;-85
2023/02/16 01:23:08;;;;;;;24.10;14.43;;;3.00;99.90;;;;;;4954885;29;20183;-85
2023/02/16 01:25:35;;;;;;;23.97;14.50;;;3.00;99.90;;;;;;4954907;29;20189;-85
2023/02/16 01:28:11;;;;;;;23.73;14.10;;;2.90;99.90;;;;;;4955803;28;20189;-86
2023/02/16 01:30:36;;;;;;;22.17;14.70;;;2.90;99.90;;;;;;4954705;29;20288;-86
2023/02/16 01:33:02;;;;;;;24.77;14.20;;;2.90;99.90;;;;;;4954838;28;20216;-84
2023/02/16 01:35:31;;;;;;;23.87;14.13;;;2.80;99.90;;;;;;4954281;28;20248;-83
2023/02/16 01:38:00;;;;;;;26.57;14.57;;;2.70;99.90;;;;;;4954670;29;20189;-83
2023/02/16 01:40:32;;;;;;;25.10;15.37;;;2.70;99.90;;;;;;4954664;28;20189;-85
2023/02/16 01:43:02;;;;;;;25.50;15.57;;;2.70;99.90;;;;;;4955228;28;20180;-86
2023/02/16 01:45:34;;;;;;;26.67;14.93;;;2.80;99.90;;;;;;4954676;28;20556;-85
2023/02/16 01:48:04;;;;;;;26.67;15.30;;;2.80;99.90;;;;;;4954144;28;20182;-86
2023/02/16 01:50:50;;;;;;;26.93;15.53;;;2.80;99.90;;;;;;4954209;28;20213;-82
2023/02/16 01:53:30;;;;;;;34.93;16.13;;;2.80;99.90;;;;;;4960529;28;20279;-83
2023/02/16 01:56:00;;;;;;;26.23;15.43;;;2.80;99.90;;;;;;4954718;28;20276;-83
2023/02/16 01:58:47;;;;;;;28.93;16.13;;;2.80;99.90;;;;;;4954742;28;20489;-83
2023/02/16 02:01:31;;;;;;;29.13;15.43;;;2.70;99.90;;;;;;4957250;29;20185;-83
2023/02/16 02:06:41;;;;;;;28.30;16.23;;;2.60;99.90;;;;;;4959259;29;20203;-87
2023/02/16 02:09:24;;;;;;;26.40;16.70;;;2.60;99.90;;;;;;4957933;29;20564;-87
2023/02/16 02:12:18;;;;;;;28.20;16.83;;;2.70;99.90;;;;;;4958978;28;20177;-89
2023/02/16 02:14:43;;;;;;;26.33;16.33;;;2.80;99.90;;;;;;4958193;28;20295;-86
2023/02/16 02:17:15;;;;;;;28.10;16.90;;;2.70;99.90;;;;;;4957925;28;20782;-86
2023/02/16 02:20:13;;;;;;;28.50;16.47;;;2.60;99.90;;;;;;4957363;28;20185;-87
2023/02/16 02:25:58;;;;;;;31.57;17.13;;;2.60;99.90;;;;;;4958911;29;20176;-85
2023/02/16 02:28:27;;;;;;;30.77;17.83;;;2.60;99.90;;;;;;4957615;28;20247;-86
2023/02/16 02:31:09;;;;;;;26.47;16.57;;;2.60;99.90;;;;;;4957315;28;20212;-86
2023/02/16 02:34:03;;;;;;;33.20;18.13;;;2.60;99.90;;;;;;4957454;28;20648;-85
2023/02/16 02:36:40;;;;;;;29.20;17.60;;;2.60;99.90;;;;;;4938247;29;20213;-84
2023/02/16 02:39:20;;;;;;;30.63;17.90;;;2.60;99.90;;;;;;4938282;29;20184;-85
2023/02/16 02:42:13;;;;;;;32.67;18.60;;;2.60;99.90;;;;;;4938036;29;20188;-87
2023/02/16 02:44:53;;;;;;;31.20;18.20;;;2.70;99.90;;;;;;4938267;29;20173;-85
2023/02/16 02:47:20;;;;;;;32.30;18.20;;;2.60;99.90;;;;;;4938382;29;20581;-86
2023/02/16 02:49:51;;;;;;;32.87;19.07;;;2.60;99.90;;;;;;4937472;29;20209;-85
2023/02/16 02:52:17;;;;;;;33.50;19.13;;;2.60;99.90;;;;;;4937837;29;20189;-88
2023/02/16 03:00:42;;;;;;;34.90;19.03;;;2.60;99.90;;;;;;4939140;29;20173;-85
2023/02/16 03:03:30;;;;;;;34.47;19.80;;;2.60;99.90;;;;;;4937710;29;20272;-85
2023/02/16 03:06:12;;;;;;;36.83;20.03;;;2.50;99.90;;;;;;4937920;29;20218;-86
2023/02/16 03:08:41;;;;;;;35.00;20.23;;;2.50;99.90;;;;;;4937966;29;20200;-85
2023/02/16 03:14:09;;;;;;;39.47;20.63;;;2.60;99.90;;;;;;4938949;29;20177;-84
2023/02/16 03:16:42;;;;;;;37.83;21.33;;;2.60;99.90;;;;;;4937450;29;20225;-85
2023/02/16 03:30:17;;;;;;;34.90;20.50;;;2.60;99.90;;;;;;4957595;29;20328;-86
2023/02/16 03:32:43;;;;;;;37.43;21.30;;;2.60;99.90;;;;;;4957599;28;20196;-87
2023/02/16 03:35:11;;;;;;;34.30;20.30;;;2.60;99.90;;;;;;4955819;28;20237;-81
2023/02/16 03:37:39;;;;;;;44.80;22.70;;;2.50;99.90;;;;;;4956200;28;20224;-81
2023/02/16 03:40:28;;;;;;;37.97;20.90;;;2.60;99.90;;;;;;4955841;29;20220;-82
2023/02/16 03:43:00;;;;;;;39.53;21.23;;;2.60;99.90;;;;;;4956020;28;20276;-85
2023/02/16 03:45:26;;;;;;;38.70;20.77;;;2.60;99.90;;;;;;4956072;29;20228;-86
2023/02/16 03:47:54;;;;;;;39.90;21.90;;;2.60;99.90;;;;;;4956105;28;20229;-85
2023/02/16 03:50:20;;;;;;;39.00;21.57;;;2.60;99.90;;;;;;4955913;28;20224;-85
2023/02/16 03:52:46;;;;;;;37.93;20.80;;;2.60;99.90;;;;;;4955927;28;20523;-82
2023/02/16 03:55:12;;;;;;;40.67;20.87;;;2.50;99.90;;;;;;4955678;29;20189;-90
2023/02/16 03:57:38;;;;;;;38.03;21.63;;;2.50;99.90;;;;;;4955977;28;20547;-83
2023/02/16 04:00:05;;;;;;;42.43;22.67;;;2.50;99.90;;;;;;4955808;29;20278;-84
2023/02/16 04:02:31;;;;;;;40.87;21.20;;;2.60;99.90;;;;;;4955849;29;20252;-86
2023/02/16 04:04:57;;;;;;;38.00;21.33;;;2.60;99.90;;;;;;4955364;28;20212;-86
2023/02/16 04:07:23;;;;;;;39.17;22.47;;;2.60;99.90;;;;;;4955694;28;20243;-85
2023/02/16 04:09:49;;;;;;;43.30;22.67;;;2.50;99.90;;;;;;4955329;28;20217;-85
2023/02/16 04:14:59;;;;;;;34.47;20.70;;;2.50;99.90;;;;;;4957125;29;20164;-86
2023/02/16 04:17:26;;;;;;;36.50;20.93;;;2.50;99.90;;;;;;4955692;29;20276;-85
2023/02/16 04:19:55;;;;;;;40.03;21.73;;;2.50;99.90;;;;;;4956439;28;20604;-85
2023/02/16 04:22:20;;;;;;;40.33;21.67;;;2.40;99.90;;;;;;4955059;28;20236;-83
2023/02/16 04:24:46;;;;;;;38.10;21.40;;;2.40;99.90;;;;;;4955528;28;20177;-83
2023/02/16 04:27:12;;;;;;;38.50;20.67;;;2.30;99.90;;;;;;4955526;29;20735;-84
2023/02/16 04:29:37;;;;;;;40.20;22.00;;;2.30;99.90;;;;;;4955655;28;20523;-82
2023/02/16 04:32:03;;;;;;;37.97;20.20;;;2.30;99.90;;;;;;4955457;29;20256;-82
2023/02/16 04:34:29;;;;;;;36.97;21.03;;;2.30;99.90;;;;;;4955064;28;20249;-83
2023/02/16 04:36:55;;;;;;;37.47;21.23;;;2.30;99.90;;;;;;4955003;29;20280;-83
2023/02/16 04:39:23;;;;;;;38.30;20.73;;;2.30;99.90;;;;;;4956351;28;20181;-81
2023/02/16 04:41:48;;;;;;;37.20;21.57;;;2.20;99.90;;;;;;4955589;28;20272;-82
2023/02/16 04:44:14;;;;;;;39.47;21.37;;;2.20;99.90;;;;;;4955047;28;20292;-82
2023/02/16 04:46:40;;;;;;;36.33;20.07;;;2.20;99.90;;;;;;4956126;28;20177;-83
2023/02/16 04:49:08;;;;;;;39.43;20.63;;;2.20;99.90;;;;;;4955084;29;20211;-82
2023/02/16 04:51:34;;;;;;;38.37;21.13;;;2.20;99.90;;;;;;4954899;29;20284;-85
2023/02/16 04:54:00;;;;;;;38.33;21.50;;;2.20;99.90;;;;;;4955050;28;20324;-85
2023/02/16 04:56:27;;;;;;;39.07;22.30;;;2.10;99.90;;;;;;4955013;28;20523;-87
2023/02/16 04:58:55;;;;;;;38.47;21.07;;;2.10;99.90;;;;;;4954936;28;20184;-85
2023/02/16 05:01:22;;;;;;;38.07;20.90;;;2.10;99.90;;;;;;4955059;28;20188;-84
2023/02/16 05:03:48;;;;;;;41.47;20.30;;;2.10;99.90;;;;;;4954945;28;20192;-86
2023/02/16 05:06:14;;;;;;;39.93;21.50;;;2.00;99.90;;;;;;4955066;28;20273;-87
2023/02/16 05:08:40;;;;;;;42.50;22.80;;;2.00;99.90;;;;;;4956331;28;20261;-85
2023/02/16 05:16:34;;;;;;;37.77;21.47;;;2.10;99.90;;;;;;4937065;29;20225;-83
2023/02/16 05:19:00;;;;;;;42.10;22.00;;;2.10;99.90;;;;;;4951910;28;20272;-87
2023/02/16 05:21:31;;;;;;;39.60;22.70;;;2.20;99.90;;;;;;4935829;29;20635;-84
2023/02/16 05:24:02;;;;;;;42.73;22.80;;;2.20;99.90;;;;;;4935768;29;20265;-85
2023/02/16 05:26:28;;;;;;;43.10;21.93;;;2.20;99.90;;;;;;4951408;29;20577;-84
2023/02/16 05:28:56;;;;;;;40.10;23.20;;;2.20;99.90;;;;;;4935292;29;20186;-86
2023/02/16 05:31:23;;;;;;;40.90;23.50;;;2.20;99.90;;;;;;4947735;28;20651;-85
2023/02/16 05:33:50;;;;;;;44.17;22.50;;;2.20;99.90;;;;;;4954160;28;20640;-86
2023/02/16 05:36:15;;;;;;;42.50;22.00;;;2.20;99.90;;;;;;4957646;29;20181;-82
2023/02/16 05:38:41;;;;;;;42.43;23.57;;;2.20;99.90;;;;;;4959303;28;20220;-83
2023/02/16 05:41:07;;;;;;;40.60;21.77;;;2.20;99.90;;;;;;4959253;29;20173;-85
2023/02/16 05:43:33;;;;;;;41.90;22.67;;;2.20;99.90;;;;;;4958386;28;20604;-83
2023/02/16 05:46:00;;;;;;;41.37;22.50;;;2.10;99.90;;;;;;4958511;28;20613;-86
2023/02/16 05:48:25;;;;;;;43.83;23.07;;;2.10;99.90;;;;;;4957930;28;20196;-82
2023/02/16 05:50:54;;;;;;;41.13;21.63;;;2.10;99.90;;;;;;4958308;28;20208;-85
2023/02/16 05:53:20;;;;;;;41.33;22.50;;;2.10;99.90;;;;;;4958915;28;20269;-85
2023/02/16 05:55:45;;;;;;;41.97;23.47;;;2.20;99.90;;;;;;4957839;29;20220;-84
2023/02/16 05:58:11;;;;;;;39.33;22.00;;;2.20;99.90;;;;;;4957660;28;20189;-82
2023/02/16 06:00:37;;;;;;;40.70;22.43;;;2.10;99.90;;;;;;4957521;29;20211;-85
2023/02/16 06:03:03;;;;;;;47.63;23.03;;;2.10;99.90;;;;;;4957720;28;20236;-84
2023/02/16 06:05:29;;;;;;;45.03;22.03;;;2.10;99.90;;;;;;4957004;29;20235;-85
2023/02/16 06:07:55;;;;;;;40.77;22.17;;;2.10;99.90;;;;;;4956759;28;20252;-85
2023/02/16 06:10:21;;;;;;;38.63;21.63;;;2.20;99.90;;;;;;4957088;29;20581;-84
2023/02/16 06:12:47;;;;;;;46.30;22.60;;;2.20;99.90;;;;;;4956906;29;20329;-82
2023/02/16 06:15:12;;;;;;;37.97;22.03;;;2.30;99.90;;;;;;4956881;28;20192;-84
2023/02/16 06:17:38;;;;;;;41.47;21.47;;;2.30;99.90;;;;;;4957431;28;20640;-86
2023/02/16 06:20:04;;;;;;;40.87;20.83;;;2.20;99.90;;;;;;4957106;28;20185;-85
2023/02/16 06:22:30;;;;;;;42.03;21.63;;;2.20;99.90;;;;;;4957186;28;20186;-83
2023/02/16 06:24:56;;;;;;;41.57;22.17;;;2.20;99.90;;;;;;4957367;29;20188;-83
2023/02/16 06:27:22;;;;;;;41.43;21.73;;;2.20;99.90;;;;;;4957780;29;20271;-85
2023/02/16 06:29:49;;;;;;;35.77;20.77;;;2.20;99.90;;;;;;4956616;28;20213;-85
2023/02/16 06:32:14;;;;;;;38.87;21.00;;;2.20;99.90;;;;;;4957145;28;20209;-83
2023/02/16 06:34:40;;;;;;;41.93;21.70;;;2.20;99.90;;;;;;4956976;28;20260;-80
2023/02/16 06:37:06;;;;;;;38.33;21.37;;;2.20;99.90;;;;;;4957033;28;20189;-88
2023/02/16 06:39:31;;;;;;;41.87;22.40;;;2.20;99.90;;;;;;4956702;28;20181;-81
2023/02/16 06:41:57;;;;;;;40.10;21.03;;;2.20;99.90;;;;;;4957107;29;20199;-85
2023/02/16 06:44:23;;;;;;;42.27;22.73;;;2.20;99.90;;;;;;4956909;28;20181;-81
2023/02/16 06:46:48;;;;;;;42.90;22.00;;;2.10;99.90;;;;;;4956153;28;20189;-86
2023/02/16 06:49:17;;;;;;;43.07;22.20;;;2.20;99.90;;;;;;4956829;28;20280;-82
2023/02/16 06:51:43;;;;;;;44.63;23.43;;;2.10;99.90;;;;;;4956841;28;20209;-81
2023/02/16 06:54:09;;;;;;;42.10;21.87;;;2.20;99.90;;;;;;4956737;28;20209;-83
2023/02/16 06:56:35;;;;;;;43.20;22.80;;;2.20;99.90;;;;;;4956921;28;20185;-81
2023/02/16 06:59:02;;;;;;;42.37;22.23;;;2.30;99.90;;;;;;4956731;28;20184;-83
2023/02/16 07:01:28;;;;;;;39.93;21.90;;;2.30;99.90;;;;;;4956664;28;20181;-83
2023/02/16 07:03:56;;;;;;;41.30;22.13;;;2.40;99.90;;;;;;4956291;28;20193;-84
2023/02/16 07:06:24;;;;;;;39.20;21.17;;;2.40;99.90;;;;;;4956794;28;20640;-83
2023/02/16 07:08:50;;;;;;;42.00;22.77;;;2.40;99.90;;;;;;4956073;28;20232;-83
2023/02/16 07:11:16;;;;;;;40.00;21.40;;;2.50;99.90;;;;;;4955839;28;20224;-81
2023/02/16 07:13:42;;;;;;;38.50;20.87;;;2.50;99.90;;;;;;4956885;29;20173;-83
2023/02/16 07:16:09;;;;;;;43.10;23.10;;;2.60;99.90;;;;;;4955841;28;20220;-80
2023/02/16 07:18:35;;;;;;;39.03;21.97;;;2.70;99.90;;;;;;4955856;28;20181;-83
2023/02/16 07:21:01;;;;;;;41.97;22.10;;;2.70;99.90;;;;;;4956959;28;20235;-81
2023/02/16 07:23:26;;;;;;;44.13;21.97;;;2.70;99.90;;;;;;4955759;28;20267;-79
2023/02/16 07:25:52;;;;;;;37.80;21.03;;;2.70;99.90;;;;;;4956795;28;20204;-82
2023/02/16 07:28:18;;;;;;;38.70;21.00;;;2.70;99.90;;;;;;4955644;29;20180;-86
2023/02/16 07:30:45;;;;;;;38.50;21.37;;;2.70;99.90;;;;;;4955242;29;20667;-83
2023/02/16 07:33:11;;;;;;;38.90;21.27;;;2.80;99.90;;;;;;4955823;28;20177;-82
2023/02/16 07:35:36;;;;;;;37.70;20.63;;;2.90;99.90;;;;;;4956850;28;20272;-84
2023/02/16 07:38:04;;;;;;;36.87;19.70;;;2.90;99.90;;;;;;4952903;29;20216;-89
2023/02/16 07:40:30;;;;;;;37.07;20.67;;;2.90;99.90;;;;;;4954960;28;20192;-78
2023/02/16 07:43:00;;;;;;;35.80;19.17;;;3.00;99.90;;;;;;4955386;28;20225;-83
2023/02/16 07:45:26;;;;;;;38.00;21.60;;;3.20;99.90;;;;;;4954747;28;20569;-79
2023/02/16 07:47:52;;;;;;;36.20;19.97;;;3.10;99.90;;;;;;4956200;28;20203;-80
2023/02/16 07:50:17;;;;;;;33.57;20.47;;;3.20;99.90;;;;;;4955015;29;20209;-82
2023/02/16 07:52:43;;;;;;;37.07;19.23;;;3.10;99.90;;;;;;4955515;28;20185;-82
2023/02/16 07:55:10;;;;;;;36.63;20.13;;;3.20;99.90;;;;;;4955891;29;20252;-78
2023/02/16 07:57:37;;;;;;;38.17;21.10;;;3.20;99.90;;;;;;4956015;28;20593;-80
2023/02/16 08:00:06;;;;;;;38.00;19.67;;;3.20;99.90;;;;;;4952753;28;20205;-85
2023/02/16 08:02:33;;;;;;;35.10;19.80;;;3.20;99.90;;;;;;4956076;28;20911;-85
2023/02/16 08:04:59;;;;;;;35.27;19.83;;;3.30;99.90;;;;;;4955700;29;20177;-84
2023/02/16 08:07:26;;;;;;;33.90;19.77;;;3.40;99.90;;;;;;4957185;28;20188;-83
2023/02/16 08:09:52;;;;;;;34.50;19.23;;;3.40;99.90;;;;;;4935999;29;20288;-77
2023/02/16 08:12:18;;;;;;;35.77;20.23;;;3.40;99.90;;;;;;4954449;28;20281;-81
2023/02/16 08:14:47;;;;;;;37.13;20.00;;;3.40;99.90;;;;;;4954839;28;20200;-82
2023/02/16 08:17:12;;;;;;;34.80;20.03;;;3.50;99.90;;;;;;4954939;29;20193;-83
2023/02/16 08:19:39;;;;;;;34.40;19.43;;;3.50;99.90;;;;;;4955300;28;20178;-87
2023/02/16 08:22:06;;;;;;;37.80;20.67;;;3.60;99.90;;;;;;4955748;29;20185;-85
2023/02/16 08:24:32;;;;;;;34.83;20.93;;;3.60;99.90;;;;;;4956084;28;20177;-84
2023/02/16 08:26:59;;;;;;;34.87;20.40;;;3.60;99.90;;;;;;4956859;29;20181;-89
2023/02/16 08:29:25;;;;;;;36.77;20.27;;;3.70;99.90;;;;;;4954918;28;20178;-84
2023/02/16 08:31:54;;;;;;;39.47;20.17;;;3.80;99.90;;;;;;4954991;28;20303;-80
2023/02/16 08:34:20;;;;;;;33.13;18.83;;;3.80;99.90;;;;;;4953941;28;20235;-83
2023/02/16 08:36:51;;;;;;;39.93;20.30;;;3.70;99.90;;;;;;4955626;28;20248;-80
2023/02/16 08:39:19;;;;;;;31.33;18.17;;;3.80;99.90;;;;;;4955408;28;20196;-80
2023/02/16 08:41:47;;;;;;;36.37;19.50;;;3.90;99.90;;;;;;4955668;28;20189;-85
2023/02/16 08:44:14;;;;;;;39.53;20.60;;;3.90;99.90;;;;;;4955733;28;20200;-84
2023/02/16 08:46:42;;;;;;;30.90;18.80;;;4.00;99.90;;;;;;4954297;28;20212;-82
2023/02/16 08:49:10;;;;;;;32.67;19.30;;;4.10;99.90;;;;;;4954148;29;20280;-84
2023/02/16 08:51:42;;;;;;;35.00;19.17;;;4.20;99.90;;;;;;4954191;28;20213;-88
2023/02/16 08:54:12;;;;;;;33.20;19.63;;;4.30;99.90;;;;;;4955611;28;20169;-82
2023/02/16 08:56:38;;;;;;;35.53;19.83;;;4.30;99.90;;;;;;4954899;28;20181;-84
2023/02/16 08:59:04;;;;;;;34.53;20.07;;;4.40;99.90;;;;;;4954662;28;20170;-82
2023/02/16 09:01:31;;;;;;;35.43;19.17;;;4.50;99.90;;;;;;4954345;29;20563;-82
2023/02/16 09:03:57;;;;;;;33.37;19.60;;;4.50;99.90;;;;;;4953035;29;20498;-83
2023/02/16 09:06:23;;;;;;;32.87;19.10;;;4.60;99.90;;;;;;4954883;28;20236;-81
2023/02/16 09:08:54;;;;;;;32.40;18.33;;;4.70;99.90;;;;;;4955380;28;20173;-82
2023/02/16 09:11:23;;;;;;;35.47;19.30;;;4.70;99.90;;;;;;4944496;29;20212;-86
2023/02/16 09:13:49;;;;;;;34.20;19.37;;;4.80;99.90;;;;;;4957841;28;20272;-84
2023/02/16 09:16:18;;;;;;;33.40;19.47;;;4.80;99.90;;;;;;4958141;28;20193;-83
2023/02/16 09:18:44;;;;;;;29.90;17.20;;;4.80;99.90;;;;;;4958064;29;20185;-82
2023/02/16 09:21:20;;;;;;;31.87;18.73;;;4.80;99.90;;;;;;4956731;28;20185;-83
2023/02/16 09:23:49;;;;;;;31.20;18.23;;;4.90;99.90;;;;;;4957513;29;20212;-82
2023/02/16 09:26:17;;;;;;;34.57;19.73;;;4.90;99.90;;;;;;4957816;28;20276;-83
2023/02/16 09:28:44;;;;;;;31.00;18.37;;;5.00;99.90;;;;;;4958334;28;20177;-84
2023/02/16 09:31:24;;;;;;;29.90;18.30;;;5.00;99.90;;;;;;4958408;29;20205;-90
2023/02/16 09:33:51;;;;;;;29.53;17.67;;;5.10;99.90;;;;;;4957553;28;20185;-85
2023/02/16 09:36:17;;;;;;;29.13;17.67;;;5.10;99.90;;;;;;4959580;28;20176;-84
2023/02/16 09:38:44;;;;;;;35.40;17.40;;;5.10;99.90;;;;;;4958244;28;20181;-80
2023/02/16 09:41:30;;;;;;;36.23;18.93;;;5.20;99.90;;;;;;4957897;29;20207;-82
2023/02/16 09:44:08;;;;;;;31.70;17.80;;;5.30;99.90;;;;;;4957363;28;20530;-80
2023/02/16 09:46:35;;;;;;;30.20;17.67;;;5.30;99.90;;;;;;4958300;28;20826;-83
2023/02/16 09:49:02;;;;;;;33.40;17.90;;;5.40;99.90;;;;;;4958017;28;20185;-84
2023/02/16 09:51:37;;;;;;;30.33;17.33;;;5.50;99.90;;;;;;4958293;28;20217;-84
2023/02/16 09:54:33;;;;;;;31.60;18.00;;;5.60;99.90;;;;;;4959332;28;20165;-80
2023/02/16 09:57:13;;;;;;;30.30;17.17;;;5.70;99.90;;;;;;4957851;28;20680;-81
2023/02/16 10:00:06;;;;;;;31.80;17.77;;;5.80;99.90;;;;;;4957775;28;20291;-84
2023/02/16 10:02:35;;;;;;;29.77;17.00;;;5.90;99.90;;;;;;4957581;28;20537;-84
2023/02/16 10:05:07;;;;;;;28.13;17.07;;;6.10;99.90;;;;;;4959046;28;20165;-81
2023/02/16 10:08:12;;;;;;;30.50;17.93;;;6.20;99.90;;;;;;4958455;28;20185;-81
2023/02/16 10:11:02;;;;;;;27.83;18.10;;;6.40;99.90;;;;;;4974157;28;20220;-84
2023/02/16 10:13:40;;;;;;;26.57;16.80;;;6.50;99.90;;;;;;4958672;28;20205;-80
2023/02/16 10:16:14;;;;;;;27.77;17.10;;;6.60;99.90;;;;;;4957586;28;20595;-84
2023/02/16 10:18:48;;;;;;;30.87;18.23;;;6.70;99.90;;;;;;4958624;28;20176;-89
2023/02/16 10:21:20;;;;;;;29.53;17.10;;;6.80;99.90;;;;;;4957278;28;20183;-84
2023/02/16 10:23:55;;;;;;;29.50;17.47;;;6.90;99.90;;;;;;4958262;28;20188;-86
2023/02/16 10:26:43;;;;;;;27.57;16.73;;;7.00;99.90;;;;;;4958159;28;20177;-86
2023/02/16 10:29:17;;;;;;;28.43;16.57;;;7.10;99.90;;;;;;4958664;28;20236;-88
2023/02/16 10:31:47;;;;;;;30.93;16.33;;;7.20;99.90;;;;;;4958058;28;20239;-85
2023/02/16 10:34:27;;;;;;;26.87;17.20;;;7.30;99.90;;;;;;4957724;28;20320;-85
2023/02/16 10:37:22;;;;;;;28.60;16.97;;;7.40;99.90;;;;;;4957545;28;20269;-87
2023/02/16 10:40:13;;;;;;;27.67;17.47;;;7.40;99.90;;;;;;4958580;28;20170;-86
2023/02/16 10:43:07;;;;;;;31.97;17.50;;;7.40;99.90;;;;;;4957048;28;20185;-84
2023/02/16 10:45:46;;;;;;;30.10;17.27;;;7.30;99.90;;;;;;4956966;29;20212;-84
2023/02/16 10:48:12;;;;;;;30.20;17.17;;;7.40;99.90;;;;;;4958670;28;20168;-83
2023/02/16 10:50:40;;;;;;;26.40;16.73;;;7.40;99.90;;;;;;4956734;28;20299;-86
2023/02/16 10:53:20;;;;;;;29.60;17.47;;;7.40;99.90;;;;;;4956902;28;20228;-86
2023/02/16 10:55:46;;;;;;;29.90;17.27;;;7.50;99.90;;;;;;4951835;29;20227;-86
2023/02/16 10:58:30;;;;;;;32.40;17.20;;;7.60;99.90;;;;;;4957501;28;20209;-87
2023/02/16 11:01:03;;;;;;;24.63;16.63;;;7.60;99.90;;;;;;4957684;28;20213;-89
2023/02/16 11:03:37;;;;;;;28.83;17.33;;;7.60;99.90;;;;;;4958478;28;20490;-89
2023/02/16 11:06:35;;;;;;;28.13;18.13;;;7.60;99.90;;;;;;4958619;28;20162;-84
2023/02/16 11:09:03;;;;;;;29.47;17.87;;;7.50;99.90;;;;;;4941716;28;20189;-85
2023/02/16 11:11:38;;;;;;;30.43;17.77;;;7.60;99.90;;;;;;4957490;29;20213;-87
2023/02/16 11:14:25;;;;;;;25.10;16.43;;;7.50;99.90;;;;;;4958463;28;20180;-86
2023/02/16 11:17:07;;;;;;;29.50;17.03;;;7.70;99.90;;;;;;4957474;29;20228;-86
2023/02/16 11:19:34;;;;;;;25.67;16.53;;;7.70;99.90;;;;;;4957282;29;20268;-87
2023/02/16 11:22:01;;;;;;;33.37;19.13;;;7.70;99.90;;;;;;4956874;28;20625;-84
2023/02/16 11:24:32;;;;;;;28.20;17.20;;;7.70;99.90;;;;;;4956857;28;20193;-85
2023/02/16 11:27:20;;;;;;;25.37;16.80;;;7.70;99.90;;;;;;4951308;28;20635;-86
2023/02/16 11:29:46;;;;;;;28.33;17.90;;;7.70;99.90;;;;;;4958431;28;20230;-86
2023/02/16 11:32:15;;;;;;;29.50;17.97;;;7.60;99.90;;;;;;4961401;28;20691;-84
2023/02/16 11:34:51;;;;;;;27.27;16.57;;;7.60;99.90;;;;;;4971192;28;20240;-85
2023/02/16 11:37:24;;;;;;;28.40;17.90;;;7.60;99.90;;;;;;4956330;28;20189;-85
2023/02/16 11:39:59;;;;;;;28.97;17.97;;;7.60;99.90;;;;;;4966505;28;20180;-87
2023/02/16 11:42:28;;;;;;;29.90;18.30;;;7.60;99.90;;;;;;4974503;28;20187;-86
2023/02/16 11:44:57;;;;;;;26.57;16.97;;;7.60;99.90;;;;;;4964180;28;20205;-84
2023/02/16 11:47:36;;;;;;;32.20;15.73;;;7.50;99.90;;;;;;4964703;28;20210;-86
2023/02/16 11:50:22;;;;;;;29.07;18.00;;;7.70;99.90;;;;;;4963033;28;20711;-86
2023/02/16 11:52:52;;;;;;;25.27;16.50;;;7.70;99.90;;;;;;4964021;28;20259;-85
2023/02/16 11:55:31;;;;;;;28.77;16.43;;;7.70;99.90;;;;;;4959397;28;20525;-85
2023/02/16 11:58:24;;;;;;;23.20;15.33;;;7.80;99.90;;;;;;4957906;28;20208;-90
2023/02/16 12:01:08;;;;;;;29.43;17.03;;;7.90;99.90;;;;;;4969865;28;20208;-85
2023/02/16 12:03:59;;;;;;;23.57;15.43;;;7.90;99.90;;;;;;4960427;28;20605;-86
2023/02/16 12:06:43;;;;;;;25.43;15.57;;;8.00;99.90;;;;;;4951855;28;20691;-87
2023/02/16 12:09:20;;;;;;;21.50;14.30;;;8.00;99.90;;;;;;4959342;28;20185;-85
2023/02/16 12:12:23;;;;;;;28.60;16.27;;;8.10;99.90;;;;;;4960207;28;20224;-86
2023/02/16 12:14:58;;;;;;;26.43;15.67;;;8.10;99.90;;;;;;4957954;28;20181;-87
2023/02/16 12:17:33;;;;;;;26.90;16.00;;;8.30;99.90;;;;;;4962086;28;20188;-85
2023/02/16 12:20:16;;;;;;;24.67;16.03;;;8.50;99.90;;;;;;4971715;28;20565;-84
2023/02/16 12:22:50;;;;;;;27.10;15.93;;;8.70;99.90;;;;;;4953500;28;20185;-85
2023/02/16 12:25:35;;;;;;;25.30;16.57;;;8.80;99.90;;;;;;4966037;28;20692;-87
2023/02/16 12:28:30;;;;;;;24.47;16.17;;;8.90;99.90;;;;;;4955676;28;20268;-87
2023/02/16 12:31:20;;;;;;;25.63;15.97;;;8.80;99.90;;;;;;4957609;28;20223;-84
2023/02/16 12:33:54;;;;;;;24.17;15.90;;;8.70;99.90;;;;;;4976880;28;20444;-89
2023/02/16 12:36:53;;;;;;;23.10;15.37;;;8.80;99.90;;;;;;4966085;28;20188;-87
2023/02/16 12:39:54;;;;;;;23.20;15.67;;;8.80;99.90;;;;;;4967980;28;20176;-89
2023/02/16 12:42:35;;;;;;;23.43;15.57;;;9.00;99.90;;;;;;4968751;28;20215;-90
2023/02/16 12:45:11;;;;;;;24.63;16.10;;;9.10;99.90;;;;;;4969293;28;20616;-88
2023/02/16 12:47:44;;;;;;;24.60;15.60;;;9.00;99.90;;;;;;4955771;29;20201;-86
2023/02/16 12:50:20;;;;;;;24.50;15.97;;;8.80;99.90;;;;;;4956640;28;20224;-89
2023/02/16 12:52:58;;;;;;;28.47;15.50;;;8.70;99.90;;;;;;4955694;28;20621;-83
2023/02/16 12:55:33;;;;;;;22.80;15.40;;;8.70;99.90;;;;;;4956709;28;20605;-86
2023/02/16 12:58:13;;;;;;;24.33;15.97;;;8.70;99.90;;;;;;4955622;28;20168;-87
2023/02/16 13:00:51;;;;;;;28.63;17.03;;;8.60;99.90;;;;;;4956368;28;20161;-88
2023/02/16 13:03:35;;;;;;;26.87;16.23;;;8.60;99.90;;;;;;4956556;28;20223;-83
2023/02/16 13:06:29;;;;;;;24.87;16.37;;;8.50;99.90;;;;;;4955529;29;20684;-86
2023/02/16 13:09:10;;;;;;;27.60;16.23;;;8.50;99.90;;;;;;4956638;28;20597;-87
2023/02/16 13:12:20;;;;;;;25.47;16.57;;;8.50;99.90;;;;;;4955396;28;20606;-85
2023/02/16 13:14:59;;;;;;;24.70;15.23;;;8.40;99.90;;;;;;4937550;28;20197;-84
2023/02/16 13:17:36;;;;;;;24.63;15.23;;;8.40;99.90;;;;;;4954826;28;20181;-85
2023/02/16 13:20:02;;;;;;;24.93;16.23;;;8.30;99.90;;;;;;4954684;28;20268;-86
2023/02/16 13:22:46;;;;;;;23.47;15.13;;;8.30;99.90;;;;;;4955368;28;20277;-88
2023/02/16 13:25:34;;;;;;;21.43;14.90;;;8.30;99.90;;;;;;4955146;28;20185;-87
2023/02/16 13:28:21;;;;;;;26.63;15.40;;;8.30;99.90;;;;;;4956179;28;20545;-87
2023/02/16 13:31:11;;;;;;;26.37;14.77;;;8.30;99.90;;;;;;4956204;28;20201;-83
2023/02/16 13:34:07;;;;;;;23.30;14.70;;;8.40;99.90;;;;;;4956433;28;20660;-91
2023/02/16 13:37:27;;;;;;;22.87;14.70;;;8.50;99.90;;;;;;4955721;28;20201;-91
2023/02/16 13:40:11;;;;;;;23.43;14.83;;;8.60;99.90;;;;;;4916070;29;20207;-91
2023/02/16 13:42:56;;;;;;;25.07;14.80;;;8.70;99.90;;;;;;4954954;28;20692;-85